Date,TemperatureHighF,TemperatureAvgF,TemperatureLowF,DewpointHighF,DewpointAvgF,DewpointLowF,HumidityHigh,HumidityAvg,HumidityLow,PressureMaxIn,PressureMinIn,WindSpeedMaxMPH,WindSpeedAvgMPH,GustSpeedMaxMPH,PrecipitationSumIn
2013-12-1,47.0,40.1,36.5,32.9,29.2,26.1,85,65,49,30.11,29.58,15,7,28,0.01
2013-12-2,44.1,31.5,8.4,33.2,22.4,-0.6,90,69,49,29.83,29.40,14,4,20,0.01
2013-12-3,8.5,1.8,-4.5,-0.5,-6.8,-10.7,77,67,55,30.46,29.83,6,2,13,0.00
2013-12-4,2.9,-3.3,-11.3,-6.9,-11.6,-18.6,75,67,56,30.56,30.46,7,2,9,0.00
2013-12-5,3.9,-6.0,-13.0,-6.9,-13.6,-19.5,80,69,56,30.61,30.50,7,2,7,0.00
2013-12-6,-6.0,-9.2,-13.6,-10.6,-14.2,-18.9,81,78,62,30.62,30.59,2,0,2,0.00
2013-12-7,-3.8,-11.4,-16.6,-13.6,-18.4,-22.2,79,70,57,30.61,30.44,4,1,5,0.00
2013-12-8,-1.6,-9.3,-17.3,-8.3,-14.8,-22.6,81,76,71,30.71,30.54,4,1,6,0.00
2013-12-9,22.1,3.8,-11.6,11.2,-2.0,-15.8,83,77,62,30.72,30.44,7,2,10,0.00
2013-12-10,24.7,20.7,15.5,14.9,12.0,10.0,87,70,54,30.44,30.31,8,3,12,0.00
2013-12-11,24.0,19.0,14.4,15.1,12.0,9.6,86,74,60,30.48,30.39,9,2,12,0.00
2013-12-12,42.2,26.3,16.3,20.5,16.1,11.3,81,66,41,30.44,30.09,10,1,14,0.01
2013-12-13,35.9,31.5,26.1,26.4,22.3,16.8,81,69,58,30.32,30.07,10,4,16,0.00
2013-12-14,42.5,36.2,30.9,26.6,22.8,16.9,66,58,38,30.34,30.13,13,5,22,0.00
2013-12-15,48.9,42.5,36.4,26.7,21.3,12.4,55,43,28,30.16,30.03,17,9,24,0.00
2013-12-16,47.1,39.6,28.0,22.3,17.0,14.4,65,41,28,30.28,30.05,16,8,25,0.00
2013-12-17,56.5,43.7,27.2,19.9,17.4,13.6,64,37,22,30.28,29.80,12,4,18,0.00
2013-12-18,46.0,38.6,27.6,27.2,17.8,12.3,88,46,26,29.80,29.58,9,3,15,0.00
2013-12-19,27.7,11.2,5.1,24.9,6.2,0.0,90,80,67,30.18,29.66,5,2,8,0.00
2013-12-20,28.0,18.1,7.0,21.1,10.9,3.3,89,75,50,30.18,29.66,8,2,13,0.00
2013-12-21,30.7,25.3,18.8,21.7,18.3,15.4,90,75,54,30.03,29.66,10,3,14,0.00
2013-12-22,33.5,29.4,25.4,24.6,22.5,19.9,86,76,65,30.24,30.00,7,2,13,0.00
2013-12-23,43.9,37.0,25.5,32.7,28.2,20.5,91,71,51,30.23,29.84,19,6,36,0.03
2013-12-24,32.8,28.6,21.8,19.8,14.8,12.5,70,56,44,30.47,29.98,18,8,28,0.00
2013-12-25,36.3,24.0,12.2,17.9,12.7,7.7,84,63,38,30.54,30.37,12,1,13,0.00
2013-12-26,49.3,38.9,27.3,26.6,22.5,12.5,70,52,38,30.44,30.22,7,2,10,0.00
2013-12-27,53.2,39.4,27.9,24.6,18.9,12.5,74,47,22,30.23,29.90,10,2,14,0.00
2013-12-28,43.1,32.2,26.2,23.1,18.6,13.7,70,58,36,30.30,29.89,12,4,18,0.00
2013-12-29,34.0,28.2,19.9,22.4,15.1,7.0,70,58,32,30.34,30.12,11,3,18,0.00
2013-12-30,42.4,36.2,29.7,28.9,24.1,21.0,72,62,43,30.24,29.95,14,3,20,0.00
2013-12-31,42.6,37.5,32.6,30.7,26.3,19.7,83,64,54,30.10,29.88,13,6,23,0.00